Ardrishaig, United Kingdom
Current Conditions -  °F | °C
As of 12:20 AM on Sunday 26 Oct 2014 (Local Time) from EGPI Reporting Station
Broken Clouds Broken Clouds  
Wind Chill: 11°   Ceiling: 3700
Heat Index: 11°   Visibility: 6mi
Dew Point:   Wind: 25mph
Humidity: 88%   Direction: 210°SSW
Pressure: 29.68"   Gusts: 37mph
Location:  56.02°N, 5.45°W
Report Text: EGPI 252320Z AUTO 21022G32KT 180V240 9999 BKN037/// 11/09 Q1005
Loading
Personal Weather Stations






























Interactive Weather Map
Tropical Storm Tracking
New forecast layout! Learn more

10-Day Weather Forecast

Advertisements
Track Severe Weather on mobile